Time;durP1;ratioP1;P1;durP2;ratioP2;P2;SDS_P1;SDS_P2;PMS_P1;PMS_P2;Temp;Humidity;BMP_temperature;BMP_pressure;BME280_temperature;BME280_humidity;BME280_pressure;Samples;Min_cycle;Max_cycle;Signal;HPM_P1;HPM_P2
2022/02/10 00:13:25;;;;;;;7.33;6.33;;;;;;;7.46;88.35;101338.27;1607544;88;21079;-74
2022/02/10 00:17:39;;;;;;;7.30;6.20;;;;;;;7.38;88.33;101331.77;1607299;87;21123;-75
2022/02/10 00:20:31;;;;;;;9.58;6.62;;;;;;;7.35;88.34;101331.73;1604101;88;21121;-75
2022/02/10 00:23:27;;;;;;;8.35;6.50;;;;;;;7.32;88.30;101331.71;1604070;88;21590;-75
2022/02/10 00:35:23;;;;;;;6.80;6.12;;;;;;;7.18;88.33;101339.33;1614613;88;21668;-75
2022/02/10 00:38:02;;;;;;;8.10;6.45;;;;;;;7.15;88.34;101335.45;1616304;85;21117;-75
2022/02/10 00:40:47;;;;;;;7.10;6.42;;;;;;;7.13;88.36;101329.84;1616843;88;21132;-75
2022/02/10 00:43:31;;;;;;;6.78;6.15;;;;;;;7.11;88.38;101325.97;1610077;88;21069;-76
2022/02/10 00:46:16;;;;;;;9.35;6.58;;;;;;;7.11;88.40;101328.97;1618375;87;21132;-75
2022/02/10 00:49:00;;;;;;;7.50;5.83;;;;;;;7.10;88.39;101334.96;1605512;87;21490;-75
2022/02/10 00:51:47;;;;;;;9.70;6.40;;;;;;;7.10;88.42;101334.53;1611511;88;21103;-74
2022/02/10 00:54:31;;;;;;;;;;;;;;;7.11;88.43;101329.83;1606587;88;21573;-74
2022/02/10 00:57:20;;;;;;;6.87;5.97;;;;;;;7.13;88.48;101328.56;1632630;85;20278;-76
2022/02/10 01:00:34;;;;;;;;;;;;;;;7.12;88.40;101334.13;1631961;85;21067;-75
2022/02/10 01:29:44;;;;;;;6.50;5.87;;;;;;;7.27;88.45;101311.13;1632678;85;21134;-75
2022/02/10 01:32:28;;;;;;;6.62;6.03;;;;;;;7.29;88.45;101310.68;1625064;85;21034;-75
2022/02/10 01:35:19;;;;;;;8.28;5.83;;;;;;;7.32;88.46;101309.84;1630945;85;21118;-75
2022/02/10 01:37:59;;;;;;;6.53;5.83;;;;;;;7.33;88.39;101307.70;1633064;85;21059;-75
2022/02/10 02:05:39;;;;;;;8.53;6.47;;;;;;;7.41;88.35;101289.34;1618708;85;20947;-75
2022/02/10 02:08:23;;;;;;;6.83;6.22;;;;;;;7.42;88.35;101287.63;1607057;88;20982;-75
2022/02/10 02:11:05;;;;;;;8.65;6.53;;;;;;;7.44;88.37;101289.36;1606662;88;20955;-74
2022/02/10 02:13:49;;;;;;;7.22;6.53;;;;;;;7.45;88.34;101287.66;1605288;88;20951;-74
2022/02/10 02:16:34;;;;;;;7.83;6.28;;;;;;;7.46;88.35;101282.94;1617220;87;20926;-74
2022/02/10 02:19:20;;;;;;;7.30;6.60;;;;;;;7.46;88.34;101285.09;1600182;88;20960;-75
2022/02/10 02:22:06;;;;;;;7.55;6.35;;;;;;;7.48;88.33;101293.68;1612775;88;20988;-75
2022/02/10 02:24:50;;;;;;;6.87;6.03;;;;;;;7.50;88.33;101289.84;1618352;87;21574;-75
2022/02/10 02:27:47;;;;;;;7.15;6.47;;;;;;;7.50;88.34;101285.55;1614622;88;21102;-75
2022/02/10 02:30:43;;;;;;;7.40;6.60;;;;;;;7.52;88.32;101290.70;1614786;88;21565;-75
2022/02/10 02:33:50;;;;;;;7.40;6.80;;;;;;;7.53;88.31;101280.84;1600127;88;21368;-75
2022/02/10 02:39:32;;;;;;;8.88;7.28;;;;;;;7.54;88.29;101281.29;1619198;86;20464;-75
2022/02/10 03:09:21;;;;;;;7.40;6.78;;;;;;;7.58;88.29;101285.61;1639358;85;21098;-75
2022/02/10 03:12:00;;;;;;;;;;;;;;;7.57;88.29;101286.03;1627026;84;21124;-75
2022/02/10 03:14:49;;;;;;;7.35;6.70;;;;;;;7.55;88.27;101290.30;1620891;86;20505;-75
2022/02/10 04:14:21;;;;;;;8.05;7.35;;;;;;;7.53;88.40;101277.86;1627533;87;21056;-76
2022/02/10 04:26:26;;;;;;;7.30;6.70;;;;;;;7.49;88.49;101265.81;1635059;87;21359;-75
2022/02/10 05:08:06;;;;;;;13.18;11.05;;;;;;;7.39;88.55;101237.44;1627845;88;20997;-75
2022/02/10 05:16:40;;;;;;;10.90;9.80;;;;;;;7.37;88.57;101229.70;1609649;88;21077;-75
2022/02/10 05:22:19;;;;;;;11.25;10.10;;;;;;;7.38;88.57;101217.70;1615783;87;21045;-75
2022/02/10 05:33:53;;;;;;;11.28;10.08;;;;;;;7.41;88.58;101225.44;1632412;87;21383;-75
2022/02/10 05:36:38;;;;;;;12.10;10.50;;;;;;;7.40;88.58;101225.00;1629397;87;20922;-75
2022/02/10 05:39:25;;;;;;;13.30;10.93;;;;;;;7.40;88.59;101221.15;1601078;88;20972;-75
2022/02/10 05:42:38;;;;;;;14.18;10.93;;;;;;;7.39;88.57;101222.00;1602428;88;20942;-75
2022/02/10 05:45:20;;;;;;;13.03;11.03;;;;;;;7.39;88.54;101226.72;1599645;88;20937;-75
2022/02/10 05:48:12;;;;;;;16.48;12.37;;;;;;;7.38;88.55;101228.86;1590871;88;20928;-75
2022/02/10 05:53:57;;;;;;;17.27;13.08;;;;;;;7.34;88.50;101221.10;1609017;88;20966;-74
2022/02/10 05:56:58;;;;;;;21.40;14.03;;;;;;;7.31;88.48;101229.23;1607165;89;20926;-74
2022/02/10 06:02:56;;;;;;;17.40;12.10;;;;;;;7.26;88.52;101230.95;1550400;91;21593;-75
2022/02/10 06:51:00;;;;;;;14.85;12.00;;;;;;;7.06;88.59;101202.92;1623125;86;21443;-75
2022/02/10 06:57:02;;;;;;;15.63;12.82;;;;;;;7.05;88.56;101197.77;1585943;89;21079;-75
2022/02/10 07:14:32;;;;;;;13.50;11.03;;;;;;;7.10;88.62;101181.95;1607764;88;21105;-76
2022/02/10 07:50:53;;;;;;;12.00;10.35;;;;;;;7.26;88.62;101185.93;1592660;88;21086;-75
2022/02/10 07:59:14;;;;;;;13.40;10.55;;;;;;;7.38;88.62;101181.26;1591134;88;21116;-76
2022/02/10 08:56:36;;;;;;;14.93;10.35;;;;;;;7.85;88.64;101123.98;1587909;88;21090;-74
2022/02/10 09:02:18;;;;;;;12.55;9.90;;;;;;;7.93;88.64;101127.02;1592049;88;21515;-75
2022/02/10 09:05:07;;;;;;;13.72;10.55;;;;;;;7.96;88.63;101128.31;1619259;87;21672;-75
2022/02/10 09:08:05;;;;;;;11.73;10.18;;;;;;;8.01;88.67;101121.88;1605688;86;21067;-73
2022/02/10 09:11:08;;;;;;;13.28;10.63;;;;;;;8.06;88.63;101122.76;1602616;87;21105;-72
2022/02/10 09:13:39;;;;;;;12.93;9.78;;;;;;;8.11;88.60;101115.05;1611979;87;21081;-75
2022/02/10 10:03:41;;;;;;;10.30;8.63;;;;;;;8.95;88.32;101079.38;1610496;86;21610;-75
2022/02/10 10:06:53;;;;;;;9.43;8.25;;;;;;;9.02;88.40;101066.47;1616895;86;21021;-76
2022/02/10 10:09:45;;;;;;;9.95;7.97;;;;;;;9.10;88.36;101068.60;1613307;86;21468;-75
2022/02/10 10:12:59;;;;;;;8.53;7.40;;;;;;;9.15;88.27;101071.59;1635675;84;21049;-75
2022/02/10 10:44:32;;;;;;;9.03;7.35;;;;;;;9.14;88.05;101032.47;1611560;86;21107;-75
2022/02/10 10:51:36;;;;;;;11.90;8.88;;;;;;;8.99;87.93;100987.81;1612003;86;21117;-75
2022/02/10 10:54:23;;;;;;;14.53;9.05;;;;;;;8.96;87.87;100984.81;1609665;86;21080;-76
2022/02/10 10:57:08;;;;;;;15.98;10.58;;;;;;;8.94;87.85;100982.23;1630682;85;21107;-75
2022/02/10 11:37:12;;;;;;;12.35;8.55;;;;;;;8.99;87.56;100903.98;1610993;86;21525;-76
2022/02/10 11:40:03;;;;;;;13.53;8.25;;;;;;;8.97;87.54;100897.55;1616607;86;22306;-76
2022/02/10 11:43:13;;;;;;;9.48;7.17;;;;;;;8.96;87.58;100891.96;1609966;86;21630;-76
2022/02/10 12:35:29;;;;;;;12.28;7.35;;;;;;;9.71;87.04;100775.27;1621042;86;21509;-77
2022/02/10 12:43:59;;;;;;;9.48;7.50;;;;;;;9.63;86.89;100769.73;1631265;85;21065;-77
2022/02/10 13:03:07;;;;;;;12.53;8.93;;;;;;;9.60;86.90;100750.41;1607687;87;38527;-76
2022/02/10 13:36:08;;;;;;;11.90;7.22;;;;;;;9.49;86.47;100720.40;1627050;86;21120;-80
2022/02/10 14:09:14;;;;;;;11.22;7.55;;;;;;;8.72;86.51;100704.77;1632024;85;21077;-80
2022/02/10 14:26:35;;;;;;;7.12;5.50;;;;;;;8.41;86.78;100727.28;1647540;85;21064;-81
2022/02/10 14:29:17;;;;;;;10.20;5.55;;;;;;;8.41;86.84;100722.56;1642655;86;21562;-81
2022/02/10 14:32:03;;;;;;;6.35;4.62;;;;;;;8.40;86.83;100710.11;1637480;85;21131;-81
2022/02/10 14:34:49;;;;;;;6.20;4.50;;;;;;;8.38;86.80;100714.42;1647524;85;21069;-81
2022/02/10 14:38:03;;;;;;;5.95;4.55;;;;;;;8.36;86.79;100712.71;1639491;85;21021;-80
2022/02/10 15:50:01;;;;;;;14.43;7.25;;;;;;;8.01;86.82;100701.28;1592597;88;21100;-79
2022/02/10 15:52:26;;;;;;;10.70;7.67;;;;;;;8.01;86.81;100697.42;1592885;88;21157;-81
2022/02/10 16:19:10;;;;;;;4.90;4.05;;;;;;;7.84;86.61;100750.25;1632570;86;21060;-82
2022/02/10 16:22:03;;;;;;;3.92;3.45;;;;;;;7.62;86.25;100763.20;1642102;86;20920;-81
2022/02/10 16:24:51;;;;;;;52.70;29.40;;;;;;;7.37;86.17;100778.22;1647034;86;20957;-81
2022/02/10 16:27:36;;;;;;;2.60;2.40;;;;;;;7.11;86.21;100784.67;1640890;85;20981;-81
2022/02/10 16:30:20;;;;;;;4.37;3.72;;;;;;;6.91;86.25;100777.36;1641127;86;20946;-80
2022/02/10 16:33:05;;;;;;;122.45;33.05;;;;;;;6.73;86.24;100785.92;1646754;85;20982;-80
2022/02/10 16:35:50;;;;;;;1.20;1.10;;;;;;;6.55;86.22;100788.02;1646367;85;20941;-81
2022/02/10 16:38:34;;;;;;;0.93;0.50;;;;;;;6.35;86.14;100787.08;1646447;86;20925;-81
2022/02/10 16:41:19;;;;;;;0.98;0.70;;;;;;;6.14;86.14;100801.13;1637274;85;20980;-77
2022/02/10 16:44:04;;;;;;;1.50;0.50;;;;;;;5.93;86.15;100798.88;1622667;85;21551;-78
2022/02/10 16:46:49;;;;;;;1.92;0.93;;;;;;;5.82;86.19;100807.33;1630321;85;21461;-77
2022/02/10 16:49:34;;;;;;;1.62;0.88;;;;;;;5.70;86.23;100809.84;1633164;85;21080;-77
2022/02/10 16:52:23;;;;;;;2.37;1.35;;;;;;;5.63;86.34;100799.96;1614139;86;21595;-76
2022/02/10 17:04:15;;;;;;;2.15;1.07;;;;;;;5.42;86.31;100819.03;1643244;85;21104;-76
2022/02/10 17:19:07;;;;;;;1.72;1.37;;;;;;;5.18;86.34;100840.20;1623049;86;22289;-76
2022/02/10 17:25:12;;;;;;;1.35;0.75;;;;;;;5.14;86.50;100861.53;1622313;86;21119;-76
2022/02/10 17:27:57;;;;;;;2.37;0.75;;;;;;;5.11;86.38;100866.63;1629837;86;21049;-77
2022/02/10 17:34:02;;;;;;;2.08;1.00;;;;;;;5.08;86.53;100867.45;1626636;86;20186;-77
2022/02/10 17:36:31;;;;;;;3.35;1.35;;;;;;;5.10;86.51;100879.86;1631954;86;20981;-77
2022/02/10 17:42:34;;;;;;;3.35;1.85;;;;;;;5.13;86.59;100889.28;1619763;86;21091;-76
2022/02/10 17:54:12;;;;;;;4.28;1.77;;;;;;;5.17;86.51;100898.73;1633342;86;20948;-77
2022/02/10 17:56:57;;;;;;;7.00;2.05;;;;;;;5.14;86.53;100908.53;1620236;86;20965;-77
2022/02/10 17:59:42;;;;;;;2.83;2.00;;;;;;;5.17;86.61;100908.98;1616508;87;21502;-77
2022/02/10 18:02:26;;;;;;;3.75;2.27;;;;;;;5.20;86.62;100910.30;1621507;86;21000;-77
2022/02/10 18:05:23;;;;;;;3.77;2.33;;;;;;;5.23;86.64;100915.42;1636431;86;21565;-77
2022/02/10 18:07:59;;;;;;;3.22;2.05;;;;;;;5.25;86.66;100921.42;1621291;86;21639;-82
2022/02/10 18:13:41;;;;;;;3.15;2.52;;;;;;;5.28;86.58;100924.88;1624078;86;21080;-79
2022/02/10 18:16:23;;;;;;;;;;;;;;;5.24;86.47;100926.98;1630100;85;21417;-81
2022/02/10 18:20:06;;;;;;;3.52;2.47;;;;;;;5.26;86.74;100934.27;1650529;84;20246;-81
2022/02/10 18:27:43;;;;;;;4.55;2.42;;;;;;;5.35;86.75;100940.33;1634955;85;21121;-81
2022/02/10 18:30:26;;;;;;;4.12;2.67;;;;;;;5.36;86.67;100948.46;1652792;84;21150;-82
2022/02/10 18:33:29;;;;;;;3.55;2.77;;;;;;;5.36;86.68;100948.04;1646733;84;21122;-84
2022/02/10 19:01:34;;;;;;;3.50;2.52;;;;;;;5.27;86.70;100962.91;1646448;85;21139;-82
2022/02/10 19:09:06;;;;;;;4.72;3.35;;;;;;;5.23;86.70;100970.13;1638685;84;21569;-73
2022/02/10 19:11:49;;;;;;;4.35;3.02;;;;;;;5.22;86.72;100965.84;1631202;85;21579;-74
2022/02/10 19:14:37;;;;;;;4.47;2.90;;;;;;;5.22;86.74;100970.10;1626834;85;21511;-74
2022/02/10 19:17:27;;;;;;;6.25;3.15;;;;;;;5.23;86.82;100967.55;1640492;85;20957;-74
2022/02/10 19:20:12;;;;;;;3.50;2.22;;;;;;;5.21;86.72;100970.94;1644235;84;20989;-73
2022/02/10 19:22:57;;;;;;;8.17;4.57;;;;;;;5.20;86.70;100962.39;1638754;84;21008;-74
2022/02/10 19:25:41;;;;;;;13.95;7.22;;;;;;;5.17;86.69;100959.83;1663669;84;20963;-74
2022/02/10 19:28:26;;;;;;;17.40;8.33;;;;;;;5.15;86.70;100965.78;1632872;85;21056;-79
2022/02/10 19:31:12;;;;;;;15.83;8.70;;;;;;;5.15;86.71;100968.34;1645164;85;21063;-79
2022/02/10 19:33:57;;;;;;;19.12;10.00;;;;;;;5.13;86.72;100970.89;1637162;85;21076;-80
2022/02/10 19:36:42;;;;;;;15.90;8.68;;;;;;;5.13;86.72;100972.59;1658661;85;21072;-79
2022/02/10 19:39:27;;;;;;;15.65;8.03;;;;;;;5.11;86.74;100976.84;1652453;85;21115;-78
2022/02/10 19:42:12;;;;;;;14.63;7.65;;;;;;;5.10;86.76;100964.86;1648650;85;21044;-80
2022/02/10 19:45:00;;;;;;;7.78;5.12;;;;;;;5.09;86.82;100962.72;1652754;85;21020;-80
2022/02/10 19:47:44;;;;;;;6.72;4.03;;;;;;;5.09;86.79;100968.27;1640422;85;21016;-79
2022/02/10 19:50:31;;;;;;;4.92;3.10;;;;;;;5.08;86.78;100971.25;1652049;86;21055;-78
2022/02/10 19:53:17;;;;;;;;;;;;;;;5.06;86.72;100975.92;1638500;86;20901;-78
2022/02/10 19:56:02;;;;;;;2.50;1.85;;;;;;;5.05;86.74;100980.61;1650591;85;20143;-78
2022/02/10 19:58:47;;;;;;;3.15;1.45;;;;;;;5.00;86.66;100983.11;1636958;85;20914;-78
2022/02/10 20:01:32;;;;;;;2.30;1.47;;;;;;;4.97;86.69;100983.94;1639153;86;20945;-79
2022/02/10 20:04:19;;;;;;;2.10;1.70;;;;;;;4.94;86.72;100980.05;1621024;85;21381;-79
2022/02/10 20:07:04;;;;;;;3.20;1.72;;;;;;;4.94;86.74;100992.00;1660637;85;21091;-79
2022/02/10 20:09:48;;;;;;;2.20;1.77;;;;;;;4.93;86.73;100997.55;1634112;86;21590;-79
2022/02/10 20:12:33;;;;;;;2.02;1.80;;;;;;;4.89;86.66;100991.94;1657208;85;21244;-79
2022/02/10 20:15:21;;;;;;;2.50;1.85;;;;;;;4.87;86.72;100997.88;1655556;85;21051;-79
2022/02/10 20:18:05;;;;;;;;;;;;;;;4.86;86.77;101005.12;1642083;85;21049;-79
2022/02/10 20:20:54;;;;;;;4.37;2.40;;;;;;;4.83;86.76;101005.09;1637488;86;20190;-79
2022/02/10 20:23:38;;;;;;;3.85;2.67;;;;;;;4.82;86.83;101002.08;1644024;86;20941;-80
2022/02/10 20:26:22;;;;;;;5.17;2.90;;;;;;;4.80;86.79;101008.47;1612830;89;20995;-78
2022/02/10 20:29:10;;;;;;;3.30;2.58;;;;;;;4.79;86.78;101013.56;1633588;86;21290;-78
2022/02/10 20:31:53;;;;;;;4.85;2.80;;;;;;;4.78;86.82;101020.81;1633473;87;20975;-78
2022/02/10 20:34:38;;;;;;;5.75;2.98;;;;;;;4.79;86.90;101022.53;1640332;87;20964;-79
2022/02/10 20:37:25;;;;;;;3.33;2.70;;;;;;;4.78;86.85;101019.11;1632643;87;20937;-79
2022/02/10 20:40:11;;;;;;;4.60;2.42;;;;;;;4.78;86.84;101019.53;1629008;87;20940;-80
2022/02/10 20:43:03;;;;;;;3.35;2.45;;;;;;;4.78;86.79;101023.37;1644225;86;20945;-80
2022/02/10 20:45:46;;;;;;;4.85;2.37;;;;;;;4.75;86.78;101022.05;1645575;84;20921;-80
2022/02/10 20:48:31;;;;;;;3.77;1.90;;;;;;;4.71;86.72;101026.27;1634584;86;20973;-78
2022/02/10 20:51:16;;;;;;;3.37;2.58;;;;;;;4.70;86.75;101021.13;1636282;87;20924;-80
2022/02/10 20:54:01;;;;;;;2.98;2.35;;;;;;;4.65;86.73;101016.83;1634167;86;21456;-80
2022/02/10 20:56:46;;;;;;;5.83;3.72;;;;;;;4.62;86.74;101015.50;1637424;86;20965;-79
2022/02/10 20:59:39;;;;;;;10.15;5.92;;;;;;;4.59;86.74;101015.88;1636691;87;20916;-81
2022/02/10 21:02:32;;;;;;;10.70;6.17;;;;;;;4.55;86.70;101017.53;1619343;87;20936;-79
2022/02/10 21:08:08;;;;;;;13.90;8.53;;;;;;;4.49;86.72;101017.44;1632610;86;20997;-79
2022/02/10 21:10:48;;;;;;;;;;;;;;;4.46;86.77;101013.55;1634449;86;20965;-79
2022/02/10 21:13:33;;;;;;;14.75;7.12;;;;;;;4.45;86.83;101008.41;1610933;87;20558;-78
2022/02/10 21:16:18;;;;;;;11.15;6.92;;;;;;;4.42;86.79;101010.50;1635859;86;20933;-78
2022/02/10 21:19:03;;;;;;;12.33;8.35;;;;;;;4.40;86.79;101015.16;1630810;87;20965;-76
2022/02/10 21:21:48;;;;;;;8.23;6.28;;;;;;;4.37;86.83;101013.41;1635497;86;21333;-77
2022/02/10 21:24:34;;;;;;;11.12;5.67;;;;;;;4.36;86.82;101010.83;1638573;85;21452;-77
2022/02/10 21:30:11;;;;;;;6.47;4.17;;;;;;;4.31;86.81;101017.15;1616452;86;20976;-76
2022/02/10 21:32:57;;;;;;;;;;;;;;;4.28;86.80;101019.66;1618688;86;21378;-76
2022/02/10 21:36:15;;;;;;;6.97;4.03;;;;;;;4.27;86.85;101014.09;1619655;86;20111;-77
2022/02/10 21:38:29;;;;;;;5.72;3.87;;;;;;;4.22;86.78;101012.74;1620918;86;21828;-77
2022/02/10 22:19:44;;;;;;;3.45;3.15;;;;;;;4.35;86.97;101042.38;1612904;87;20964;-78
2022/02/10 22:22:33;;;;;;;4.83;3.72;;;;;;;4.37;87.02;101042.84;1629741;87;20939;-77
2022/02/10 22:25:13;;;;;;;;;;;;;;;4.37;86.98;101047.97;1624665;87;20942;-77
2022/02/10 22:27:59;;;;;;;5.15;4.00;;;;;;;4.38;87.03;101050.97;1590151;87;28097;-78
2022/02/10 22:30:49;;;;;;;4.62;3.60;;;;;;;4.39;86.96;101056.95;1634038;87;20968;-77
2022/02/10 22:33:52;;;;;;;;;;;;;;;4.40;87.05;101056.98;1645545;85;21759;-77
2022/02/10 22:36:19;;;;;;;5.37;3.72;;;;;;;4.41;87.08;101055.28;1625485;86;20130;-77
2022/02/10 22:39:05;;;;;;;4.53;3.95;;;;;;;4.43;87.09;101055.75;1615633;87;20919;-77
2022/02/10 22:41:49;;;;;;;5.60;3.75;;;;;;;4.45;87.08;101057.05;1595935;88;21568;-77
2022/02/10 22:44:36;;;;;;;6.90;3.90;;;;;;;4.47;87.08;101057.52;1621770;88;21065;-78
2022/02/10 22:47:20;;;;;;;4.70;3.95;;;;;;;4.48;87.05;101055.41;1607991;87;20937;-77
2022/02/10 22:50:06;;;;;;;4.85;3.62;;;;;;;4.48;87.00;101053.27;1632462;87;20931;-78
2022/02/10 22:52:50;;;;;;;6.85;4.25;;;;;;;4.49;87.04;101057.13;1623110;86;21778;-77
2022/02/10 22:55:39;;;;;;;6.75;4.12;;;;;;;4.51;87.04;101059.30;1582247;89;20971;-77
2022/02/10 22:58:23;;;;;;;5.30;4.50;;;;;;;4.51;87.08;101055.88;1576754;90;21081;-77
2022/02/10 23:01:11;;;;;;;5.20;4.47;;;;;;;4.53;87.07;101052.91;1608320;88;20925;-77
2022/02/10 23:03:56;;;;;;;5.10;4.60;;;;;;;4.55;87.09;101054.66;1617015;87;20938;-78
2022/02/10 23:06:41;;;;;;;5.95;4.55;;;;;;;4.57;87.13;101045.30;1624382;86;20930;-78
2022/02/10 23:12:29;;;;;;;8.00;4.35;;;;;;;4.60;87.10;101042.79;1618054;86;20959;-77
2022/02/10 23:15:14;;;;;;;6.00;4.50;;;;;;;4.61;87.12;101046.21;1623600;86;20978;-77
2022/02/10 23:17:58;;;;;;;5.37;4.03;;;;;;;4.62;87.13;101047.52;1633523;86;21531;-78
2022/02/10 23:20:44;;;;;;;6.58;4.80;;;;;;;4.63;87.12;101051.80;1622203;87;20941;-78
2022/02/10 23:23:31;;;;;;;7.97;5.97;;;;;;;4.64;87.13;101052.24;1630312;86;21381;-78
2022/02/10 23:26:20;;;;;;;4.87;3.95;;;;;;;4.65;87.14;101056.95;1646559;86;20991;-78
2022/02/10 23:29:05;;;;;;;5.67;4.58;;;;;;;4.68;87.20;101062.08;1608990;87;20934;-78
2022/02/10 23:31:50;;;;;;;6.35;5.33;;;;;;;4.70;87.15;101060.41;1597386;87;21030;-78
2022/02/10 23:34:34;;;;;;;8.48;5.50;;;;;;;4.72;87.19;101068.11;1611436;88;20937;-78
2022/02/10 23:37:18;;;;;;;6.47;4.95;;;;;;;4.74;87.20;101060.03;1635511;86;20961;-78
2022/02/10 23:40:03;;;;;;;6.35;4.67;;;;;;;4.73;87.15;101054.05;1651013;86;20916;-77
2022/02/10 23:42:52;;;;;;;5.83;4.70;;;;;;;4.74;87.16;101054.91;1624603;86;20971;-78
2022/02/10 23:45:40;;;;;;;9.40;5.72;;;;;;;4.75;87.20;101051.51;1617691;87;20934;-78
2022/02/10 23:48:20;;;;;;;10.72;5.72;;;;;;;4.77;87.17;101056.23;1616462;87;20966;-78
2022/02/10 23:51:06;;;;;;;9.00;5.90;;;;;;;4.76;87.16;101051.95;1617616;87;20906;-78
2022/02/10 23:53:50;;;;;;;6.63;6.03;;;;;;;4.77;87.21;101056.23;1635720;86;21514;-78
2022/02/10 23:56:41;;;;;;;7.25;5.37;;;;;;;4.78;87.20;101058.82;1592897;88;20963;-78
